TWF weather

Joslin Field Magic Valley Regional Airport
Twin Falls, Idaho, United States

Public forecast

Using degrees Fahrenheit for public forecast. Weather courtesy of forecast.io.

METAR (pilot weather report)

Retrieved 2019/05/21 03:53 UTC (29 minutes ago):

KTWF 210353Z AUTO 19006KT 10SM BKN040 BKN048 09/06 A2970 RMK AO2 SLP034 T00940061

TAF (pilot weather forecast)

Forecast is more than 12 hours old.

Retrieved 2019/05/20 00:22 UTC (1 day ago):

TAF KTWF 202320Z 2100/2124 28010KT P6SM VCSH FEW025 OVC050 FM210300 21010KT P6SM VCSH BKN060 FM211000 21008KT P6SM -RA OVC015 FM211800 25010G20KT P6SM VCSH BKN030